Time;durP1;ratioP1;P1;durP2;ratioP2;P2;SDS_P1;SDS_P2;PMS_P1;PMS_P2;Temp;Humidity;BMP_temperature;BMP_pressure;BME280_temperature;BME280_humidity;BME280_pressure;Samples;Min_cycle;Max_cycle;Signal;HPM_P1;HPM_P2
2022/05/27 00:01:27;;;;;;;1.25;0.90;;;;;;;20.18;43.56;97521.31;5153604;27;20058;-66
2022/05/27 00:03:55;;;;;;;3.42;1.25;;;;;;;20.16;43.81;97521.53;5141023;27;20031;-66
2022/05/27 00:06:20;;;;;;;1.10;0.82;;;;;;;20.13;43.60;97530.88;5148127;27;20034;-66
2022/05/27 00:08:46;;;;;;;2.45;0.85;;;;;;;20.10;43.62;97525.97;5153625;27;20402;-66
2022/05/27 00:11:13;;;;;;;1.27;0.77;;;;;;;20.08;43.38;97525.38;5154602;27;20125;-66
2022/05/27 00:13:39;;;;;;;2.63;0.90;;;;;;;20.05;43.29;97517.81;5153994;27;20171;-66
2022/05/27 00:16:04;;;;;;;1.25;0.77;;;;;;;20.01;43.49;97521.16;5154390;27;20057;-67
2022/05/27 00:18:30;;;;;;;0.70;0.63;;;;;;;20.00;43.37;97515.00;5153664;27;20540;-67
2022/05/27 00:20:57;;;;;;;1.85;0.90;;;;;;;19.99;43.31;97518.72;5154136;27;20409;-67
2022/05/27 00:23:22;;;;;;;1.27;0.90;;;;;;;19.98;43.32;97527.84;5154008;27;20109;-67
2022/05/27 00:25:48;;;;;;;1.23;0.80;;;;;;;19.96;43.61;97524.56;5146276;27;20183;-66
2022/05/27 00:28:14;;;;;;;4.10;1.00;;;;;;;19.95;43.35;97523.75;5139714;27;20027;-68
2022/05/27 00:30:40;;;;;;;1.42;0.85;;;;;;;19.92;43.54;97524.22;5153799;27;20500;-67
2022/05/27 00:33:05;;;;;;;2.10;0.77;;;;;;;19.92;43.37;97518.84;5153812;27;20019;-66
2022/05/27 00:35:31;;;;;;;3.22;0.85;;;;;;;19.90;43.44;97517.44;5154023;27;20033;-68
2022/05/27 00:37:57;;;;;;;2.63;1.00;;;;;;;19.89;43.55;97524.66;5153969;27;20050;-68
2022/05/27 00:40:24;;;;;;;1.25;0.82;;;;;;;19.90;43.48;97520.13;5151980;27;20023;-68
2022/05/27 00:42:50;;;;;;;1.33;0.80;;;;;;;19.87;43.43;97521.38;5154155;27;20555;-66
2022/05/27 00:45:22;;;;;;;2.90;1.00;;;;;;;19.86;43.49;97519.72;5153163;27;20136;-64
2022/05/27 00:47:52;;;;;;;0.80;0.68;;;;;;;19.87;43.29;97520.59;5154479;27;20043;-66
2022/05/27 00:50:20;;;;;;;1.65;0.73;;;;;;;19.85;43.22;97519.97;5154206;27;20026;-66
2022/05/27 00:52:47;;;;;;;1.20;0.90;;;;;;;19.85;43.34;97519.97;5157999;27;20030;-65
2022/05/27 00:55:18;;;;;;;1.52;0.85;;;;;;;19.83;43.25;97521.00;5155512;27;20041;-66
2022/05/27 00:57:49;;;;;;;3.33;0.90;;;;;;;19.81;43.23;97523.09;5156642;27;20034;-66
2022/05/27 01:00:19;;;;;;;1.58;0.75;;;;;;;19.82;43.12;97531.97;5156283;27;20045;-66
2022/05/27 01:02:44;;;;;;;2.25;0.88;;;;;;;19.81;43.25;97531.16;5156597;27;20850;-66
2022/05/27 01:05:13;;;;;;;1.70;0.73;;;;;;;19.81;43.22;97519.63;5156343;27;20034;-65
2022/05/27 01:07:39;;;;;;;1.30;0.88;;;;;;;19.80;43.23;97523.34;5156678;27;20046;-66
2022/05/27 01:10:08;;;;;;;1.13;0.65;;;;;;;19.79;43.11;97524.38;5154041;27;20077;-66
2022/05/27 01:13:01;;;;;;;1.10;0.73;;;;;;;19.79;43.04;97524.38;5156220;27;20035;-65
2022/05/27 01:15:53;;;;;;;0.82;0.75;;;;;;;19.75;43.17;97524.03;5156764;27;20027;-67
2022/05/27 01:18:18;;;;;;;0.90;0.65;;;;;;;19.76;43.22;97524.84;5156450;27;20019;-67
2022/05/27 01:20:59;;;;;;;1.20;0.80;;;;;;;19.74;43.43;97534.97;5134815;27;20050;-67
2022/05/27 01:23:46;;;;;;;1.27;0.80;;;;;;;19.72;43.32;97524.50;5155680;27;20033;-66
2022/05/27 01:26:35;;;;;;;2.15;0.80;;;;;;;19.70;43.25;97526.59;5153921;27;20034;-67
2022/05/27 01:29:42;;;;;;;1.10;0.68;;;;;;;19.70;43.29;97526.59;5156104;27;20018;-65
2022/05/27 01:32:14;;;;;;;0.75;0.68;;;;;;;19.67;43.40;97521.66;5072099;28;20435;-66
2022/05/27 01:34:53;;;;;;;1.15;0.70;;;;;;;19.67;43.19;97524.34;5071495;28;20024;-67
2022/05/27 01:37:29;;;;;;;2.10;0.98;;;;;;;19.67;43.23;97521.66;5117556;27;20103;-67
2022/05/27 01:40:09;;;;;;;4.57;0.85;;;;;;;19.66;43.29;97525.41;5155825;27;20050;-67
2022/05/27 01:43:00;;;;;;;1.58;0.80;;;;;;;19.64;43.28;97525.63;5154305;27;20031;-65
2022/05/27 01:45:36;;;;;;;1.10;0.60;;;;;;;19.64;43.26;97528.31;5155777;27;20022;-67
2022/05/27 01:48:11;;;;;;;1.85;0.73;;;;;;;19.62;43.26;97518.88;5155005;27;20042;-65
2022/05/27 01:50:55;;;;;;;1.15;0.75;;;;;;;19.60;43.38;97521.75;5151297;27;20069;-65
2022/05/27 01:53:51;;;;;;;1.40;0.70;;;;;;;19.58;43.13;97529.22;5155486;27;20105;-65
2022/05/27 01:56:36;;;;;;;1.73;0.57;;;;;;;19.55;43.31;97524.34;5155951;27;20034;-66
2022/05/27 01:59:17;;;;;;;1.15;0.57;;;;;;;19.55;43.16;97534.22;5155731;27;20476;-67
2022/05/27 02:01:49;;;;;;;1.17;0.80;;;;;;;19.54;43.24;97529.91;5151530;27;20030;-65
2022/05/27 02:04:25;;;;;;;1.08;0.80;;;;;;;19.52;43.38;97533.63;5145816;27;20039;-66
2022/05/27 02:06:58;;;;;;;1.08;0.73;;;;;;;19.47;43.32;97519.28;5152541;27;20114;-65
2022/05/27 02:09:56;;;;;;;2.90;0.90;;;;;;;19.51;43.40;97526.63;5155327;27;20114;-67
2022/05/27 02:12:37;;;;;;;0.95;0.70;;;;;;;19.49;43.38;97517.19;5133798;27;20039;-67
2022/05/27 02:15:26;;;;;;;1.75;0.98;;;;;;;19.50;43.43;97510.78;5154991;27;20042;-66
2022/05/27 02:18:02;;;;;;;0.90;0.80;;;;;;;19.48;43.50;97511.00;5154527;27;20058;-66
2022/05/27 02:20:42;;;;;;;2.53;1.27;;;;;;;19.49;43.34;97512.63;5151039;27;20046;-66
2022/05/27 02:23:18;;;;;;;1.80;0.70;;;;;;;19.50;43.30;97508.91;5153763;27;20794;-66
2022/05/27 02:25:46;;;;;;;0.80;0.60;;;;;;;19.49;43.46;97509.94;5154683;27;20109;-66
2022/05/27 02:28:14;;;;;;;2.40;0.73;;;;;;;19.50;43.51;97508.91;5154472;27;20030;-66
2022/05/27 02:30:45;;;;;;;1.85;0.70;;;;;;;19.49;43.37;97515.31;5154518;27;20095;-67
2022/05/27 02:36:11;;;;;;;1.20;0.90;;;;;;;19.47;43.48;97517.44;5147539;27;20038;-67
2022/05/27 02:38:36;;;;;;;1.35;1.08;;;;;;;19.48;43.16;97519.03;5155219;27;20127;-67
2022/05/27 02:41:15;;;;;;;1.10;0.80;;;;;;;19.48;43.46;97513.69;5154904;27;20039;-67
2022/05/27 02:43:44;;;;;;;1.88;1.38;;;;;;;19.47;43.28;97520.13;5153930;27;20027;-67
2022/05/27 02:46:18;;;;;;;1.65;0.70;;;;;;;19.50;43.31;97521.50;5154338;27;20086;-67
2022/05/27 02:48:50;;;;;;;2.05;0.90;;;;;;;19.47;43.49;97516.59;5154953;27;20523;-65
2022/05/27 02:51:54;;;;;;;0.90;0.77;;;;;;;19.48;43.21;97515.56;5154527;27;20077;-66
2022/05/27 02:54:55;;;;;;;1.52;1.20;;;;;;;19.46;43.46;97513.13;5136784;27;20066;-67
2022/05/27 02:57:27;;;;;;;;;;;;;;;19.40;43.64;97514.00;5154632;27;20075;-67
2022/05/27 02:59:54;;;;;;;1.13;0.80;;;;;;;19.42;43.65;97511.09;5154147;27;20365;-67
2022/05/27 03:02:20;;;;;;;1.33;1.05;;;;;;;19.45;43.35;97514.16;5154121;27;20075;-66
2022/05/27 03:05:00;;;;;;;1.08;0.95;;;;;;;19.47;43.59;97521.97;5151767;27;20093;-66
2022/05/27 03:08:22;;;;;;;1.48;1.10;;;;;;;19.46;43.31;97521.16;5149054;27;20082;-67
2022/05/27 03:11:19;;;;;;;1.23;0.98;;;;;;;19.44;43.46;97514.38;5114362;27;20040;-67
2022/05/27 03:14:10;;;;;;;1.30;1.15;;;;;;;19.43;43.38;97520.78;5153637;27;20023;-66
2022/05/27 03:16:44;;;;;;;1.43;1.03;;;;;;;19.44;43.60;97523.25;5135106;27;20058;-67
2022/05/27 03:19:31;;;;;;;2.25;1.20;;;;;;;19.45;43.50;97521.38;5150769;27;20278;-67
2022/05/27 03:22:15;;;;;;;1.83;1.20;;;;;;;19.45;43.28;97524.06;5152303;27;20059;-68
2022/05/27 03:24:46;;;;;;;1.20;0.90;;;;;;;19.43;43.40;97518.09;5152605;27;20045;-67
2022/05/27 03:27:28;;;;;;;1.65;1.10;;;;;;;19.43;43.57;97524.28;5149254;27;20044;-67
2022/05/27 03:30:09;;;;;;;2.22;1.30;;;;;;;19.44;43.49;97528.59;5153716;27;20486;-66
2022/05/27 03:32:40;;;;;;;2.60;1.50;;;;;;;19.45;43.65;97532.09;5153773;27;20023;-68
2022/05/27 03:35:14;;;;;;;2.92;1.20;;;;;;;19.44;43.71;97525.94;5153491;27;20030;-68
2022/05/27 03:37:55;;;;;;;1.55;0.90;;;;;;;19.43;43.72;97520.78;5154202;27;20392;-68
2022/05/27 03:40:30;;;;;;;1.67;1.10;;;;;;;19.43;43.73;97521.59;5152883;27;20426;-66
2022/05/27 03:42:57;;;;;;;1.50;1.13;;;;;;;19.42;43.62;97519.97;5149454;27;20477;-66
2022/05/27 03:45:23;;;;;;;1.20;0.90;;;;;;;19.42;43.68;97525.34;5152686;27;20041;-67
2022/05/27 03:47:50;;;;;;;1.52;1.10;;;;;;;19.41;43.79;97518.34;5153498;27;20034;-66
2022/05/27 03:50:26;;;;;;;1.48;1.10;;;;;;;19.42;43.58;97517.28;5152697;27;20042;-68
2022/05/27 03:52:55;;;;;;;1.52;0.80;;;;;;;19.43;43.81;97521.59;5154676;27;20027;-71
2022/05/27 03:55:24;;;;;;;1.30;0.88;;;;;;;19.44;43.63;97523.25;5154347;27;20041;-68
2022/05/27 03:57:49;;;;;;;1.92;1.15;;;;;;;19.44;43.87;97515.19;5154488;27;20030;-68
2022/05/27 04:00:16;;;;;;;2.50;1.10;;;;;;;19.44;43.83;97517.03;5138842;27;20046;-68
2022/05/27 04:02:43;;;;;;;1.63;1.02;;;;;;;19.45;43.76;97524.88;5133875;27;20088;-68
2022/05/27 04:05:11;;;;;;;1.33;1.00;;;;;;;19.44;43.63;97520.56;5149591;27;20406;-68
2022/05/27 04:07:37;;;;;;;1.48;1.00;;;;;;;19.45;43.60;97513.31;5154666;27;20485;-69
2022/05/27 04:10:03;;;;;;;1.58;0.90;;;;;;;19.43;43.91;97516.25;5154521;27;20083;-69
2022/05/27 04:12:29;;;;;;;1.10;0.80;;;;;;;19.43;43.75;97512.72;5154614;27;20046;-68
2022/05/27 04:14:54;;;;;;;1.05;0.90;;;;;;;19.35;43.65;97509.34;5150206;27;20434;-69
2022/05/27 04:17:30;;;;;;;1.00;0.82;;;;;;;19.44;43.66;97517.88;5134021;27;20038;-68
2022/05/27 04:20:10;;;;;;;0.93;0.82;;;;;;;19.43;43.55;97516.25;5144089;27;20059;-67
2022/05/27 04:22:36;;;;;;;1.15;0.95;;;;;;;19.43;43.64;97510.03;5154423;27;20396;-67
2022/05/27 04:25:02;;;;;;;1.20;0.95;;;;;;;19.43;43.62;97510.88;5151932;27;20030;-69
2022/05/27 04:27:28;;;;;;;0.82;0.70;;;;;;;19.44;43.60;97517.88;5139503;27;20400;-69
2022/05/27 04:29:54;;;;;;;1.42;0.90;;;;;;;19.45;43.72;97521.38;5140115;27;20038;-69
2022/05/27 04:32:21;;;;;;;1.38;1.00;;;;;;;19.46;43.58;97526.53;5140500;27;20031;-69
2022/05/27 04:34:51;;;;;;;1.38;0.93;;;;;;;19.45;43.73;97522.19;5140219;27;20086;-69
2022/05/27 04:37:16;;;;;;;1.88;1.00;;;;;;;19.45;43.86;97524.88;5139947;27;20033;-67
2022/05/27 04:39:42;;;;;;;1.50;0.90;;;;;;;19.46;43.54;97534.56;5140381;27;20038;-68
2022/05/27 04:42:09;;;;;;;2.03;1.05;;;;;;;19.45;43.77;97524.88;5140347;27;20043;-68
2022/05/27 04:44:34;;;;;;;1.67;0.95;;;;;;;19.44;43.80;97525.94;5158991;27;20065;-69
2022/05/27 04:47:00;;;;;;;2.00;1.00;;;;;;;19.46;43.58;97514.97;5160929;27;20519;-69
2022/05/27 04:52:11;;;;;;;1.40;0.88;;;;;;;19.46;43.95;97521.16;5161202;27;20094;-69
2022/05/27 04:54:36;;;;;;;1.70;0.85;;;;;;;19.45;43.30;97514.16;5157772;27;20026;-67
2022/05/27 04:57:02;;;;;;;1.08;0.98;;;;;;;19.46;43.53;97521.16;5160390;27;20039;-68
2022/05/27 04:59:28;;;;;;;2.53;1.10;;;;;;;19.48;43.61;97520.91;5154671;27;20034;-69
2022/05/27 05:01:54;;;;;;;1.42;1.20;;;;;;;19.49;43.52;97525.25;5140270;27;20043;-68
2022/05/27 05:04:19;;;;;;;1.67;1.00;;;;;;;19.48;43.57;97524.41;5139898;27;20037;-67
2022/05/27 05:06:45;;;;;;;1.52;1.08;;;;;;;19.49;43.66;97520.69;5140054;27;20035;-68
2022/05/27 05:09:11;;;;;;;2.95;1.20;;;;;;;19.49;43.66;97523.34;5143291;27;20027;-69
2022/05/27 05:11:37;;;;;;;1.20;1.10;;;;;;;19.47;43.66;97522.78;5160790;27;20042;-68
2022/05/27 05:14:03;;;;;;;1.58;1.15;;;;;;;19.50;43.85;97522.31;5159976;27;20057;-67
2022/05/27 05:16:29;;;;;;;2.88;1.45;;;;;;;19.47;43.76;97528.16;5141321;27;20066;-67
2022/05/27 05:18:54;;;;;;;1.92;1.40;;;;;;;19.48;43.78;97534.31;5139953;27;20031;-68
2022/05/27 05:21:20;;;;;;;2.05;1.10;;;;;;;19.46;43.91;97528.38;5159684;27;20057;-69
2022/05/27 05:23:45;;;;;;;1.80;1.20;;;;;;;19.45;43.58;97534.78;5160623;27;20409;-69
2022/05/27 05:26:11;;;;;;;2.33;1.23;;;;;;;19.45;43.80;97534.78;5158635;27;20412;-66
2022/05/27 05:28:37;;;;;;;2.08;1.73;;;;;;;19.45;43.86;97540.13;5159656;27;20397;-68
2022/05/27 05:31:03;;;;;;;3.08;1.20;;;;;;;19.44;43.81;97533.13;5139887;27;20107;-68
2022/05/27 05:33:29;;;;;;;2.13;1.50;;;;;;;19.42;43.69;97543.28;5139662;27;20054;-69
2022/05/27 05:35:54;;;;;;;1.85;1.35;;;;;;;19.36;43.95;97527.06;5139698;27;20549;-66
2022/05/27 05:38:20;;;;;;;2.22;1.40;;;;;;;19.41;43.75;97542.47;5136495;27;20175;-67
2022/05/27 05:40:46;;;;;;;1.60;1.27;;;;;;;19.41;44.09;97542.47;5153543;27;20045;-66
2022/05/27 05:43:13;;;;;;;1.50;1.27;;;;;;;19.43;43.91;97543.06;5156047;27;20504;-68
2022/05/27 05:45:40;;;;;;;1.85;1.35;;;;;;;19.45;43.66;97540.97;5156912;27;20114;-68
2022/05/27 05:48:06;;;;;;;2.63;1.83;;;;;;;19.48;43.81;97542.38;5156626;27;20418;-68
2022/05/27 05:50:33;;;;;;;1.65;1.10;;;;;;;19.50;43.85;97546.47;5156558;27;20053;-66
2022/05/27 05:52:59;;;;;;;1.52;1.35;;;;;;;19.54;43.89;97543.31;5154857;27;20065;-66
2022/05/27 05:55:25;;;;;;;1.85;1.17;;;;;;;19.61;43.57;97546.75;5137065;27;20054;-67
2022/05/27 05:57:51;;;;;;;1.08;0.80;;;;;;;19.65;43.63;97546.06;5151167;27;20037;-69
2022/05/27 06:00:20;;;;;;;2.00;1.30;;;;;;;19.69;43.76;97538.34;5156341;27;20401;-69
2022/05/27 06:02:46;;;;;;;1.15;1.05;;;;;;;19.69;43.89;97550.97;5154810;27;20034;-67
2022/05/27 06:05:11;;;;;;;2.28;1.20;;;;;;;19.67;43.80;97554.69;5146703;27;20030;-67
2022/05/27 06:07:37;;;;;;;1.50;1.02;;;;;;;19.65;43.72;97554.09;5156484;27;20038;-68
2022/05/27 06:10:04;;;;;;;2.58;1.10;;;;;;;19.67;43.70;97556.53;5156584;27;20133;-67
2022/05/27 06:12:33;;;;;;;2.33;1.10;;;;;;;19.68;43.63;97555.50;5157194;27;20038;-67
2022/05/27 06:15:00;;;;;;;2.35;1.27;;;;;;;19.71;43.52;97559.59;5155994;27;20026;-67
2022/05/27 06:17:27;;;;;;;1.90;1.13;;;;;;;19.71;43.28;97551.53;5156051;27;20111;-67
2022/05/27 06:19:53;;;;;;;1.52;1.05;;;;;;;19.73;43.50;97557.50;5155685;27;20082;-67
2022/05/27 06:22:18;;;;;;;1.27;1.00;;;;;;;19.72;43.41;97567.41;5154837;27;20070;-66
2022/05/27 06:24:44;;;;;;;1.33;1.17;;;;;;;19.73;43.39;97563.69;5155861;27;20030;-68
2022/05/27 06:27:09;;;;;;;1.33;1.02;;;;;;;19.76;43.39;97568.59;5136747;27;20023;-67
2022/05/27 06:35:05;;;;;;;1.25;0.90;;;;;;;19.76;43.42;97563.25;5113463;27;20035;-67
2022/05/27 06:37:31;;;;;;;1.30;1.10;;;;;;;19.74;43.45;97568.00;5155740;27;20432;-67
2022/05/27 06:39:57;;;;;;;1.48;1.10;;;;;;;19.73;43.37;97569.06;5153668;27;20130;-68
2022/05/27 06:42:23;;;;;;;1.17;0.90;;;;;;;19.72;43.40;97571.94;5156048;27;20111;-67
2022/05/27 06:44:48;;;;;;;1.65;1.20;;;;;;;19.73;43.24;97579.78;5154817;27;20026;-67
2022/05/27 06:47:14;;;;;;;1.65;0.93;;;;;;;19.72;43.16;97578.16;5154966;27;20023;-67
2022/05/27 06:49:40;;;;;;;1.60;1.10;;;;;;;19.75;43.24;97591.13;5152760;27;20031;-66
2022/05/27 06:52:07;;;;;;;1.40;1.17;;;;;;;19.74;43.11;97581.44;5155981;27;20033;-67
2022/05/27 06:54:34;;;;;;;0.63;0.63;;;;;;;19.76;43.01;97590.06;5142866;27;20085;-66
2022/05/27 06:57:00;;;;;;;1.55;1.05;;;;;;;19.74;42.71;97592.16;5149831;27;20034;-67
2022/05/27 06:59:25;;;;;;;0.90;0.70;;;;;;;19.74;42.85;97594.00;5143244;27;20129;-67
2022/05/27 07:01:51;;;;;;;1.20;0.90;;;;;;;19.73;42.96;97589.69;5153932;27;20034;-66
2022/05/27 07:04:20;;;;;;;1.52;0.75;;;;;;;19.74;42.97;97597.53;5136404;27;20026;-67
2022/05/27 07:06:47;;;;;;;1.23;0.95;;;;;;;19.78;42.85;97600.56;5155695;27;20027;-67
2022/05/27 07:09:16;;;;;;;1.13;1.00;;;;;;;19.85;42.67;97600.47;5155642;27;20396;-67
2022/05/27 07:11:43;;;;;;;0.85;0.60;;;;;;;19.90;43.03;97597.97;5155092;27;20039;-66
2022/05/27 07:14:11;;;;;;;0.95;0.75;;;;;;;19.93;42.77;97602.84;5155057;27;20069;-66
2022/05/27 07:16:37;;;;;;;1.25;0.63;;;;;;;19.95;43.14;97601.59;5134961;27;20038;-66
2022/05/27 07:19:02;;;;;;;2.53;1.00;;;;;;;19.96;42.85;97600.53;5134699;27;20053;-67
2022/05/27 07:21:28;;;;;;;3.30;0.90;;;;;;;19.98;42.93;97603.00;5145616;27;20051;-67
2022/05/27 07:23:55;;;;;;;1.20;0.77;;;;;;;20.02;42.73;97606.84;5141126;27;20126;-67
2022/05/27 07:26:21;;;;;;;0.80;0.80;;;;;;;20.04;42.80;97607.44;5138125;27;20034;-67
2022/05/27 07:28:48;;;;;;;1.40;0.90;;;;;;;20.04;42.55;97596.72;5134243;27;20113;-67
2022/05/27 07:31:14;;;;;;;1.13;0.93;;;;;;;20.04;42.57;97595.88;5141351;27;20065;-67
2022/05/27 07:33:40;;;;;;;1.10;0.88;;;;;;;20.04;42.48;97591.34;5154751;27;20109;-67
2022/05/27 07:36:06;;;;;;;2.85;1.00;;;;;;;20.06;42.75;97589.25;5150311;27;20078;-66
2022/05/27 07:38:31;;;;;;;1.25;0.82;;;;;;;20.09;42.48;97599.50;5133984;27;20027;-66
2022/05/27 07:40:57;;;;;;;1.92;1.00;;;;;;;20.13;42.55;97599.88;5134997;27;20046;-66
2022/05/27 07:43:22;;;;;;;1.52;0.98;;;;;;;20.16;42.47;97603.97;5155405;27;20183;-66
2022/05/27 07:45:49;;;;;;;0.60;0.60;;;;;;;20.18;42.53;97593.81;5152330;27;20023;-67
2022/05/27 07:48:14;;;;;;;1.15;0.90;;;;;;;20.22;42.45;97592.31;5155311;27;20026;-66
2022/05/27 07:50:40;;;;;;;2.90;0.90;;;;;;;20.22;42.70;97595.81;5154448;27;20058;-66
2022/05/27 07:53:06;;;;;;;0.90;0.60;;;;;;;20.23;42.82;97599.28;5144668;27;20031;-66
2022/05/27 07:55:32;;;;;;;1.13;0.80;;;;;;;20.25;42.56;97607.94;5133498;27;20038;-66
2022/05/27 07:57:58;;;;;;;1.02;0.77;;;;;;;20.22;42.58;97603.06;5153384;27;20026;-68
2022/05/27 08:00:27;;;;;;;0.85;0.60;;;;;;;20.22;42.74;97606.53;5154172;27;20153;-66
2022/05/27 08:02:53;;;;;;;2.55;0.75;;;;;;;20.23;42.37;97601.97;5152974;27;20065;-66
2022/05/27 08:05:22;;;;;;;2.58;0.73;;;;;;;20.25;42.56;97608.78;5153869;27;20061;-66
2022/05/27 08:07:48;;;;;;;2.70;0.80;;;;;;;20.27;42.50;97613.91;5151878;27;20393;-66
2022/05/27 08:10:16;;;;;;;1.00;0.55;;;;;;;20.28;42.58;97612.84;5154854;27;20481;-66
2022/05/27 08:12:42;;;;;;;2.83;0.77;;;;;;;20.31;42.47;97620.47;5151546;27;20500;-66
2022/05/27 08:15:09;;;;;;;1.13;0.80;;;;;;;20.30;42.32;97608.06;5147419;27;20027;-67
2022/05/27 08:17:36;;;;;;;1.77;0.70;;;;;;;20.31;42.60;97603.50;5134147;27;20480;-66
2022/05/27 08:20:03;;;;;;;1.15;0.70;;;;;;;20.35;42.45;97615.44;5138532;27;20450;-67
2022/05/27 08:22:29;;;;;;;1.85;0.90;;;;;;;20.34;42.47;97617.31;5150485;27;20034;-66
2022/05/27 08:24:54;;;;;;;1.15;0.80;;;;;;;20.35;42.33;97616.28;5153255;27;20504;-68
2022/05/27 08:27:20;;;;;;;1.08;0.60;;;;;;;20.37;42.38;97619.50;5133781;28;20027;-67
2022/05/27 08:29:45;;;;;;;0.85;0.70;;;;;;;20.34;42.29;97617.31;5146088;27;20034;-68
2022/05/27 08:32:11;;;;;;;0.75;0.63;;;;;;;20.38;42.25;97629.22;5154374;27;20038;-69
2022/05/27 08:40:41;;;;;;;1.05;0.85;;;;;;;20.41;41.87;97618.00;5145443;27;20079;-65
2022/05/27 08:43:31;;;;;;;0.93;0.80;;;;;;;20.41;41.83;97618.00;5146401;27;20042;-66
2022/05/27 08:46:15;;;;;;;1.35;0.65;;;;;;;20.43;42.16;97610.53;5154024;27;20434;-66
2022/05/27 08:48:44;;;;;;;1.23;0.73;;;;;;;20.43;42.21;97618.59;5148704;27;20057;-65
2022/05/27 08:51:16;;;;;;;2.08;0.88;;;;;;;20.41;41.96;97618.00;5152969;27;20042;-65
2022/05/27 08:54:06;;;;;;;3.65;1.45;;;;;;;20.40;42.03;97615.56;5137320;27;20023;-66
2022/05/27 08:59:34;;;;;;;1.42;0.80;;;;;;;20.37;41.73;97624.88;5146206;27;20396;-67
2022/05/27 09:02:10;;;;;;;1.92;0.90;;;;;;;20.38;41.82;97628.41;5153906;27;20035;-66
2022/05/27 09:05:01;;;;;;;1.25;0.88;;;;;;;20.37;41.90;97632.13;5147957;27;20031;-67
2022/05/27 09:07:33;;;;;;;0.90;0.68;;;;;;;20.34;42.36;97630.75;5140728;27;20090;-66
2022/05/27 09:10:17;;;;;;;1.30;0.80;;;;;;;20.36;42.00;97639.41;5152796;27;20045;-66
2022/05/27 09:13:03;;;;;;;2.45;0.90;;;;;;;20.35;41.97;97647.66;5153416;27;20023;-67
2022/05/27 09:15:38;;;;;;;1.85;0.85;;;;;;;20.34;42.12;97654.09;5139396;27;20090;-67
2022/05/27 09:18:12;;;;;;;1.23;0.80;;;;;;;20.34;42.37;97654.09;5156930;27;20026;-66
2022/05/27 09:20:56;;;;;;;1.85;1.10;;;;;;;20.32;42.25;97646.28;5157307;27;20053;-66
2022/05/27 09:23:55;;;;;;;2.67;0.95;;;;;;;20.29;42.53;97644.03;5156211;27;20115;-65
2022/05/27 09:26:33;;;;;;;1.67;1.30;;;;;;;20.26;42.75;97649.84;5145934;27;20125;-68
2022/05/27 09:29:33;;;;;;;1.85;1.33;;;;;;;20.24;42.53;97651.94;5155258;27;20041;-67
2022/05/27 09:32:18;;;;;;;2.00;1.25;;;;;;;20.21;42.75;97639.00;5116762;27;20042;-66
2022/05/27 09:34:45;;;;;;;1.67;1.02;;;;;;;20.17;42.55;97646.69;5156218;27;20064;-66
2022/05/27 09:37:20;;;;;;;2.65;1.23;;;;;;;20.20;42.55;97645.44;5155702;27;20521;-65
2022/05/27 09:39:45;;;;;;;2.90;1.25;;;;;;;20.21;42.46;97639.00;5155578;27;20531;-66
2022/05/27 09:42:25;;;;;;;2.40;1.40;;;;;;;20.25;42.32;97649.06;5138044;27;20035;-66
2022/05/27 09:44:50;;;;;;;1.25;1.00;;;;;;;20.27;42.42;97644.28;5156580;27;20042;-67
2022/05/27 09:47:17;;;;;;;2.10;1.50;;;;;;;20.31;42.34;97639.25;5154836;27;20138;-67
2022/05/27 09:49:45;;;;;;;2.42;1.00;;;;;;;20.34;42.31;97641.50;5156355;27;20155;-64
2022/05/27 09:52:10;;;;;;;1.65;1.15;;;;;;;20.33;42.39;97647.06;5156775;27;20876;-67
2022/05/27 09:54:46;;;;;;;2.20;1.20;;;;;;;20.31;42.49;97654.53;5143460;27;20034;-66
2022/05/27 09:57:13;;;;;;;6.00;2.85;;;;;;;20.30;42.22;97653.72;5136103;27;20073;-65
2022/05/27 09:59:42;;;;;;;2.53;1.20;;;;;;;20.30;42.35;97651.03;5143667;27;20037;-65
2022/05/27 10:02:15;;;;;;;2.92;1.63;;;;;;;20.27;42.42;97667.63;5156470;27;20036;-64
2022/05/27 10:04:54;;;;;;;5.90;1.30;;;;;;;20.27;42.17;97665.75;5152994;27;20045;-65
2022/05/27 10:07:24;;;;;;;1.98;1.42;;;;;;;20.25;42.61;97658.97;5156203;27;20038;-68
2022/05/27 10:09:50;;;;;;;2.60;1.30;;;;;;;20.24;42.56;97674.28;5140570;27;20104;-66
2022/05/27 10:12:28;;;;;;;3.40;1.40;;;;;;;20.22;42.73;97683.63;5147068;27;20557;-66
2022/05/27 10:14:55;;;;;;;1.75;1.15;;;;;;;20.18;42.78;97677.84;5156470;27;20026;-65
2022/05/27 10:17:32;;;;;;;5.18;1.33;;;;;;;20.18;42.76;97696.66;5156471;27;20164;-66
2022/05/27 10:20:17;;;;;;;1.65;0.98;;;;;;;20.17;43.16;97697.69;5154102;27;20398;-66
2022/05/27 10:22:57;;;;;;;1.88;1.10;;;;;;;20.17;43.27;97700.38;5155913;27;20437;-68
2022/05/27 10:25:31;;;;;;;1.08;0.60;;;;;;;20.15;42.98;97707.84;5151011;27;20058;-67
2022/05/27 10:27:56;;;;;;;2.00;1.00;;;;;;;20.15;43.00;97712.41;5144065;27;20066;-67
2022/05/27 10:30:29;;;;;;;2.17;0.98;;;;;;;20.15;43.58;97705.16;5156158;27;20058;-68
2022/05/27 10:33:11;;;;;;;2.95;0.93;;;;;;;20.17;43.61;97721.06;5153218;27;20041;-70
2022/05/27 10:35:36;;;;;;;5.47;1.40;;;;;;;20.19;43.75;97733.19;5155448;27;20516;-68
2022/05/27 10:38:17;;;;;;;2.33;0.80;;;;;;;20.20;43.67;97723.28;5154423;27;20039;-66
2022/05/27 10:40:58;;;;;;;3.53;1.00;;;;;;;20.16;43.47;97716.75;5152336;27;20516;-66
2022/05/27 10:43:29;;;;;;;4.10;0.90;;;;;;;20.12;43.13;97719.88;5154750;27;20789;-66
2022/05/27 10:45:56;;;;;;;;;;;;;;;20.00;43.58;97710.97;5154186;27;20042;-66
2022/05/27 10:48:27;;;;;;;1.00;0.60;;;;;;;19.98;43.59;97710.34;5152757;27;19915;-62
2022/05/27 10:51:06;;;;;;;1.48;0.75;;;;;;;19.96;43.39;97712.44;5155821;27;20114;-65
2022/05/27 10:53:41;;;;;;;3.30;0.70;;;;;;;19.92;43.41;97711.28;5155780;27;20149;-65
2022/05/27 10:56:33;;;;;;;2.95;0.73;;;;;;;19.86;43.45;97701.41;5155664;27;20466;-65
2022/05/27 11:02:27;;;;;;;1.75;0.80;;;;;;;19.75;43.46;97719.91;5155634;27;20049;-65
2022/05/27 11:05:23;;;;;;;2.92;0.85;;;;;;;19.73;43.64;97719.31;5153725;27;20034;-65
2022/05/27 11:08:00;;;;;;;0.70;0.52;;;;;;;19.72;43.38;97728.41;5154891;27;20031;-65
2022/05/27 11:11:13;;;;;;;0.55;0.50;;;;;;;19.69;43.40;97717.31;5155035;27;20029;-65
2022/05/27 11:17:30;;;;;;;3.13;0.50;;;;;;;19.72;43.66;97720.38;5152595;27;20050;-65
2022/05/27 11:20:26;;;;;;;2.97;0.70;;;;;;;19.80;43.48;97720.03;5120855;27;20061;-65
2022/05/27 11:23:13;;;;;;;1.55;0.75;;;;;;;19.86;43.20;97712.13;5153530;27;20038;-67
2022/05/27 11:26:24;;;;;;;3.65;1.02;;;;;;;19.93;43.27;97716.41;5155531;27;20121;-66
2022/05/27 11:29:06;;;;;;;0.82;0.70;;;;;;;19.96;43.19;97707.06;5152307;27;20042;-66
2022/05/27 11:32:03;;;;;;;1.38;0.80;;;;;;;19.99;43.36;97708.50;5155707;27;20435;-65
2022/05/27 11:34:34;;;;;;;1.25;0.60;;;;;;;19.99;43.36;97709.31;5104045;27;20470;-65
2022/05/27 11:37:05;;;;;;;7.13;1.55;;;;;;;20.04;43.77;97706.78;5146648;27;20062;-65
2022/05/27 11:39:47;;;;;;;2.13;0.95;;;;;;;20.05;44.33;97719.16;5154828;27;20082;-65
2022/05/27 11:42:50;;;;;;;3.10;2.45;;;;;;;20.06;44.33;97718.13;5154553;27;20401;-67
2022/05/27 11:45:27;;;;;;;1.50;1.00;;;;;;;20.04;44.10;97716.69;5152695;27;20045;-67
2022/05/27 11:48:05;;;;;;;7.10;1.50;;;;;;;20.05;44.67;97734.44;5153913;27;20034;-66
2022/05/27 11:51:11;;;;;;;2.17;1.02;;;;;;;20.04;44.66;97732.78;5150357;27;20038;-67
2022/05/27 11:54:04;;;;;;;3.30;1.35;;;;;;;20.02;44.97;97733.03;5153723;27;20038;-65
2022/05/27 11:57:11;;;;;;;3.67;1.73;;;;;;;19.99;45.25;97730.78;5135686;27;20030;-64
2022/05/27 11:59:44;;;;;;;6.03;3.13;;;;;;;19.98;45.44;97721.09;5119169;27;20505;-67
2022/05/27 12:02:41;;;;;;;4.97;3.83;;;;;;;19.95;46.10;97716.16;5152946;27;20554;-67
2022/05/27 12:05:17;;;;;;;28.48;10.27;;;;;;;19.94;46.80;97720.75;5123446;27;20405;-68
2022/05/27 12:08:20;;;;;;;40.70;14.45;;;;;;;19.93;47.36;97729.84;5154983;27;20038;-68
2022/05/27 12:10:49;;;;;;;58.50;16.48;;;;;;;19.91;48.09;97729.22;5153671;27;20057;-65
2022/05/27 12:13:24;;;;;;;70.25;18.88;;;;;;;19.98;48.82;97729.16;5152943;27;20397;-65
2022/05/27 12:15:57;;;;;;;53.67;15.35;;;;;;;19.99;48.60;97746.91;5153971;27;20083;-65
2022/05/27 12:18:32;;;;;;;44.33;15.98;;;;;;;20.00;49.00;97734.31;5152407;27;20043;-66
2022/05/27 12:21:01;;;;;;;45.58;12.82;;;;;;;20.05;48.58;97743.31;5153587;27;20129;-66
2022/05/27 12:23:28;;;;;;;51.88;13.73;;;;;;;20.07;48.50;97741.19;5153291;27;20030;-65
2022/05/27 12:25:59;;;;;;;39.45;14.32;;;;;;;20.10;48.12;97738.06;5153937;27;20026;-65
2022/05/27 12:28:30;;;;;;;45.60;14.15;;;;;;;20.13;48.51;97743.00;5154134;27;20034;-65